Geyserville, CA (95441)

3:41 PM PDT on September 18, 2014 (GMT -0700)
Geyserville | Change Station
CLOSE
Current Station
Personal Weather Station
Location: Geyserville, CA
Elevation: 207 ft
Nearby Weather Stations

Elev 207 ft 38.72 °N, 122.91 °W | Updated 4 seconds ago

Overcast
Overcast
75.3 °F
Feels Like 77 °F
N
4.0
Wind Variable Wind from SW
Gusts 9.1 mph

Today
High -- | Low -- °F
--% Chance of Precip.
Yesterday
High -- | Low -- °F
Precip. -- in
6:55 AM 7:14 PM
Waning Crescent, 24% visible
Pressure 29.82 in
Visibility 10.0 miles
Clouds Mostly Cloudy 1500 ft
Mostly Cloudy 2100 ft
Overcast 7000 ft
Heat Index 77 °F
Dew Point 62 °F
Humidity 63%
Rainfall 0.10 in
Snow Depth 0 in , 1 in , 0 in
UV 2 out of 12
Pollen 5.40 out of 12
Air Quality Not available.
Flu Activity Not available.
METAR KSTS 182153Z 23006KT 10SM BKN015 BKN021 OVC070 23/17 A2984 RMK AO2 SLP097 T02330167

More Conditions Fewer Conditions

Pressure 29.82 in
Visibility 10.0 miles
Clouds Mostly Cloudy 1500 ft
Mostly Cloudy 2100 ft
Overcast 7000 ft
Heat Index 77 °F
Dew Point 62 °F
Humidity 63%
Rainfall 0.10 in
Snow Depth 0 in , 1 in , 0 in
UV 2 out of 12
Pollen 5.40 out of 12
Air Quality Not available.
Flu Activity Not available.
METAR KSTS 182153Z 23006KT 10SM BKN015 BKN021 OVC070 23/17 A2984 RMK AO2 SLP097 T02330167

More Conditions Fewer Conditions

10-Day Weather Forecast

Almanac

Astronomy

Sep. 18, 2014 Rise Set
Actual Time 6:55 AM PDT 7:14 PM PDT
Civil Twilight 6:29 AM PDT 7:41 PM PDT
Nautical Twilight 5:57 AM PDT 8:12 PM PDT
Astronomical Twilight 5:26 AM PDT 8:44 PM PDT
Moon 1:55 AM PDT 4:07 PM PDT
Length of Visible Light 13h 12m
Length of Day
12h 19m
Tomorrow will be 2m 29s shorter.
Waning Crescent, 24% of the Moon is Illuminated
Today
Waning Crescent
Sep 24
New
Oct 1
First Quarter
Oct 8
Full
Oct 15
Last Quarter

Today's Extremes

State Highs State Lows

Community

WunderPhotos

Upload Photos

1,754,471 photos uploaded!

WunderBlogs® & News

Nearby

Air Quality

  Air Quality AQ Index Pollutant
Thursday Good
OZONE
Friday Good
PM2.5
Saturday Moderate
PM2.5
Sunday Moderate
PM2.5
Monday Moderate
PM2.5
Tuesday Moderate
PM2.5

Snow Depth

Station Depth Elevation
Leavitt Meadows 0 in 7200 ft
Adin Mountain 1 in 6200 ft
Echo Peak 0 in 7800 ft
Burnside Lake 0 in 8139 ft
Summit Meadow 0 in 9122 ft

Earthquake Activity

City Distance Mag. Time & Date
The Geysers, California 9 miles 2.5 11:29 PM PDT
2014-09-17
Cobb, California 10 miles 2.7 1:23 PM PDT
2014-09-16
Minimum magnitude displayed is 2.5.

Coastal Water Temperatures

Place Temperature
Point Reyes, CA 64.9 °F
Arena Cove, CA 62.1 °F
San Francisco, CA 66.0 °F
Richmond, CA 66.9 °F

Nearby Weather Stations